Terminal Aerodrome Forecast
Issued by NWS Lake Charles, LA

Home | Current Version | Previous Version | Text Only | Print | Product List | Glossary On
Versions: 1 2 3 4 5 6 7 8 9 10 11 12 13 14 15 16 17 18 19 20
000
FTUS44 KLCH 182335
TAFLFT
TAF
KLFT 182335Z 1900/1924 17008KT P6SM VCSH SCT015 BKN025
     FM190400 17005KT 4SM BR VCSH OVC007
     FM190800 17004KT 2SM BR VCSH OVC004
     FM191400 18004KT 2SM -SHRA VCTS OVC005CB
     FM191800 21008KT 5SM -SHRA VCTS OVC007CB=

USA.gov is the U.S. government's official web portal to all federal, state and local government web resources and services.